Time;durP1;ratioP1;P1;durP2;ratioP2;P2;SDS_P1;SDS_P2;PMS_P1;PMS_P2;Temp;Humidity;BMP_temperature;BMP_pressure;BME280_temperature;BME280_humidity;BME280_pressure;Samples;Min_cycle;Max_cycle;Signal;HPM_P1;HPM_P2
2021/04/29 00:01:39;;;;;;;5.03;2.85;;;;;;;18.13;32.76;101281.16;5033216;28;20044;-70
2021/04/29 00:04:05;;;;;;;5.22;3.58;;;;;;;18.13;32.77;101277.59;5033108;28;20113;-69
2021/04/29 00:06:30;;;;;;;11.65;3.47;;;;;;;18.10;32.82;101279.09;5031874;28;20033;-69
2021/04/29 00:08:56;;;;;;;5.38;2.92;;;;;;;18.16;32.50;101280.47;5032969;28;20049;-74
2021/04/29 00:11:21;;;;;;;4.68;2.70;;;;;;;18.24;32.48;101278.72;5033284;28;20062;-70
2021/04/29 00:13:47;;;;;;;5.00;2.83;;;;;;;18.19;32.34;101271.47;5032908;28;20056;-69
2021/04/29 00:16:12;;;;;;;4.18;3.03;;;;;;;18.20;32.23;101275.81;5032858;28;20033;-69
2021/04/29 00:18:38;;;;;;;5.20;2.75;;;;;;;18.30;32.18;101283.66;5030849;28;20036;-69
2021/04/29 00:21:04;;;;;;;4.68;2.70;;;;;;;18.30;32.14;101274.53;5033170;28;20555;-71
2021/04/29 00:23:30;;;;;;;5.07;2.95;;;;;;;18.29;31.82;101273.75;5032813;28;20064;-70
2021/04/29 00:25:56;;;;;;;4.90;3.05;;;;;;;18.30;32.06;101278.13;5032816;28;20069;-70
2021/04/29 00:28:22;;;;;;;4.95;3.15;;;;;;;18.25;31.93;101275.59;5032753;28;20112;-74
2021/04/29 00:30:52;;;;;;;4.82;2.92;;;;;;;18.25;31.98;101272.81;5032786;28;20021;-70
2021/04/29 00:33:17;;;;;;;4.85;2.28;;;;;;;18.28;31.84;101274.06;5032763;28;20395;-69
2021/04/29 00:35:43;;;;;;;4.22;2.70;;;;;;;18.27;31.66;101283.53;5032538;28;20041;-70
2021/04/29 00:38:09;;;;;;;3.83;2.60;;;;;;;18.30;31.76;101275.34;5032605;28;20113;-69
2021/04/29 00:40:35;;;;;;;5.13;2.92;;;;;;;18.20;31.93;101270.28;5032594;28;20063;-70
2021/04/29 00:43:01;;;;;;;6.05;2.92;;;;;;;18.14;32.18;101274.50;5032488;28;20022;-70
2021/04/29 00:45:27;;;;;;;4.45;2.72;;;;;;;18.10;32.34;101272.75;5032578;28;20033;-70
2021/04/29 00:47:52;;;;;;;6.15;2.85;;;;;;;18.13;32.30;101272.84;5032437;28;20435;-70
2021/04/29 00:50:23;;;;;;;5.65;2.58;;;;;;;18.12;32.16;101260.19;5032472;28;20033;-69
2021/04/29 00:52:49;;;;;;;3.78;2.65;;;;;;;18.11;32.22;101268.84;5032509;28;20030;-69
2021/04/29 00:55:15;;;;;;;6.65;2.58;;;;;;;18.09;32.36;101266.44;5032069;28;20499;-70
2021/04/29 00:57:41;;;;;;;7.57;2.70;;;;;;;18.09;32.29;101266.44;5032652;28;20032;-69
2021/04/29 01:00:09;;;;;;;5.53;2.95;;;;;;;18.03;32.42;101265.88;5032432;28;20562;-73
2021/04/29 01:02:41;;;;;;;6.93;2.72;;;;;;;18.01;32.49;101267.38;5031009;28;20127;-69
2021/04/29 01:05:33;;;;;;;5.25;2.42;;;;;;;18.00;32.45;101261.06;5032353;28;20032;-69
2021/04/29 01:08:15;;;;;;;5.43;3.13;;;;;;;17.93;32.56;101251.75;5031133;28;20040;-69
2021/04/29 01:10:48;;;;;;;5.75;2.70;;;;;;;17.89;32.46;101259.91;5032263;28;20030;-69
2021/04/29 01:13:18;;;;;;;4.65;2.55;;;;;;;17.89;32.75;101256.34;5032634;28;20395;-74
2021/04/29 01:15:46;;;;;;;;;;;;;;;17.81;32.85;101260.06;5032648;28;20036;-74
2021/04/29 01:18:14;;;;;;;3.40;2.03;;;;;;;17.84;32.75;101262.94;5032250;28;20286;-69
2021/04/29 01:21:04;;;;;;;4.78;2.53;;;;;;;17.79;32.86;101262.38;5032427;28;20026;-69
2021/04/29 01:23:48;;;;;;;6.30;2.58;;;;;;;17.71;32.84;101266.88;5032236;28;20503;-69
2021/04/29 01:26:33;;;;;;;5.68;2.80;;;;;;;17.71;32.78;101267.69;5032204;28;20032;-70
2021/04/29 01:29:07;;;;;;;9.70;3.03;;;;;;;17.68;32.85;101267.53;5032134;28;20029;-69
2021/04/29 01:31:40;;;;;;;6.07;2.38;;;;;;;17.64;32.66;101266.63;5035542;28;20087;-70
2021/04/29 01:34:09;;;;;;;5.00;2.50;;;;;;;17.61;32.99;101270.91;5034746;28;20025;-69
2021/04/29 01:36:37;;;;;;;5.32;2.53;;;;;;;17.72;32.76;101269.28;5036089;28;20391;-72
2021/04/29 01:39:06;;;;;;;5.53;2.67;;;;;;;17.66;32.62;101258.78;5035929;28;20044;-69
2021/04/29 01:41:31;;;;;;;6.27;3.80;;;;;;;17.51;32.89;101268.59;5036128;28;20053;-69
2021/04/29 01:43:57;;;;;;;7.07;3.28;;;;;;;17.45;32.80;101264.44;5035820;28;20298;-69
2021/04/29 01:46:24;;;;;;;5.07;2.20;;;;;;;17.39;32.98;101268.63;5035769;28;20040;-69
2021/04/29 01:48:51;;;;;;;7.25;3.22;;;;;;;17.34;33.19;101266.88;5035533;28;20053;-70
2021/04/29 01:51:18;;;;;;;5.55;2.50;;;;;;;17.28;33.24;101270.22;5035645;28;20037;-70
2021/04/29 01:53:44;;;;;;;4.45;2.28;;;;;;;17.27;33.13;101269.41;5035653;28;20032;-69
2021/04/29 01:56:11;;;;;;;7.75;2.63;;;;;;;17.32;33.01;101262.88;5035554;28;20038;-73
2021/04/29 01:58:37;;;;;;;5.05;3.50;;;;;;;17.25;33.07;101266.22;5035511;28;20029;-70
2021/04/29 02:01:04;;;;;;;7.50;3.15;;;;;;;17.16;33.35;101260.81;5035511;28;20033;-70
2021/04/29 02:03:29;;;;;;;6.78;2.90;;;;;;;17.02;33.46;101256.78;5035451;28;20083;-69
2021/04/29 02:05:55;;;;;;;7.47;3.17;;;;;;;17.03;33.65;101259.19;5035340;28;20053;-69
2021/04/29 02:08:21;;;;;;;6.68;3.40;;;;;;;17.05;33.31;101259.63;5035327;28;20026;-69
2021/04/29 02:10:51;;;;;;;7.50;3.90;;;;;;;16.99;33.59;101269.28;5035256;28;20116;-71
2021/04/29 02:13:17;;;;;;;;;;;;;;;16.91;33.54;101262.72;5035743;28;20065;-69
2021/04/29 02:15:50;;;;;;;5.65;3.47;;;;;;;16.96;33.46;101261.69;5035089;28;19999;-73
2021/04/29 02:18:18;;;;;;;5.63;3.15;;;;;;;16.92;33.58;101256.03;5050153;28;20030;-75
2021/04/29 02:20:46;;;;;;;6.38;3.08;;;;;;;16.90;33.55;101260.31;5035229;28;20029;-69
2021/04/29 02:23:15;;;;;;;8.23;3.70;;;;;;;16.88;33.55;101262.59;5034999;28;20041;-69
2021/04/29 02:25:44;;;;;;;7.35;3.80;;;;;;;16.91;33.49;101250.88;5035099;28;20087;-74
2021/04/29 02:28:10;;;;;;;7.97;4.68;;;;;;;16.90;33.55;101249.25;5035097;28;20025;-69
2021/04/29 02:30:36;;;;;;;5.70;3.95;;;;;;;16.86;33.43;101256.63;5035224;28;20036;-69
2021/04/29 02:33:03;;;;;;;13.30;4.55;;;;;;;16.77;33.76;101253.94;5034956;28;20476;-69
2021/04/29 02:35:29;;;;;;;5.95;4.05;;;;;;;16.72;33.68;101258.91;5035093;28;20384;-69
2021/04/29 02:37:55;;;;;;;6.93;3.70;;;;;;;16.63;33.61;101254.25;5034795;28;20022;-72
2021/04/29 02:40:22;;;;;;;10.30;3.97;;;;;;;16.65;33.67;101251.97;5034766;28;20021;-69
2021/04/29 02:42:49;;;;;;;6.35;4.32;;;;;;;16.64;33.76;101252.31;5034143;28;20101;-69
2021/04/29 02:45:16;;;;;;;7.03;3.55;;;;;;;16.54;33.56;101250.75;5034664;28;20037;-69
2021/04/29 02:47:47;;;;;;;6.63;3.65;;;;;;;16.51;33.77;101251.47;5034448;28;20046;-69
2021/04/29 02:50:16;;;;;;;7.32;4.75;;;;;;;16.51;33.83;101258.94;5034499;28;20026;-69
2021/04/29 02:52:45;;;;;;;10.65;5.30;;;;;;;16.51;33.64;101254.22;5034531;28;20029;-69
2021/04/29 02:55:12;;;;;;;14.80;5.22;;;;;;;16.48;33.83;101251.34;5034430;28;20033;-69
2021/04/29 02:57:38;;;;;;;7.63;4.65;;;;;;;16.44;33.96;101247.66;5034523;28;20087;-70
2021/04/29 03:00:06;;;;;;;7.82;4.72;;;;;;;16.44;33.92;101250.41;5034449;28;20096;-69
2021/04/29 03:02:31;;;;;;;15.85;5.45;;;;;;;16.48;33.93;101249.41;5033116;28;20033;-69
2021/04/29 03:04:57;;;;;;;8.57;4.53;;;;;;;16.48;34.10;101251.34;5034366;28;20082;-71
2021/04/29 03:07:23;;;;;;;8.82;4.53;;;;;;;16.48;33.94;101248.59;5034319;28;20075;-70
2021/04/29 03:09:49;;;;;;;9.23;5.05;;;;;;;16.50;33.90;101254.56;5034182;28;20033;-69
2021/04/29 03:12:14;;;;;;;8.52;4.72;;;;;;;16.48;34.10;101252.16;5034135;28;20025;-74
2021/04/29 03:14:40;;;;;;;7.70;4.03;;;;;;;16.49;33.69;101251.00;5034123;28;20024;-69
2021/04/29 03:17:05;;;;;;;7.13;5.13;;;;;;;16.43;34.02;101255.13;5034141;28;20384;-69
2021/04/29 03:19:31;;;;;;;7.38;4.32;;;;;;;16.32;34.12;101248.41;5034106;28;20105;-74
2021/04/29 03:21:56;;;;;;;7.45;4.82;;;;;;;16.29;34.08;101251.84;5032562;28;20033;-69
2021/04/29 03:24:22;;;;;;;6.53;4.32;;;;;;;16.27;34.17;101243.91;5032596;28;20025;-70
2021/04/29 03:26:48;;;;;;;8.60;4.25;;;;;;;16.24;34.08;101243.78;5034115;28;20061;-69
2021/04/29 03:29:13;;;;;;;11.20;4.28;;;;;;;16.16;33.97;101236.41;5032604;28;20056;-71
2021/04/29 03:31:39;;;;;;;7.22;4.68;;;;;;;16.02;34.37;101243.03;5033432;28;20484;-69
2021/04/29 03:34:05;;;;;;;8.27;4.80;;;;;;;16.06;34.32;101249.47;5033988;28;20026;-69
2021/04/29 03:36:31;;;;;;;8.68;4.03;;;;;;;16.02;34.37;101243.03;5033614;28;20041;-70
2021/04/29 03:38:56;;;;;;;9.00;5.28;;;;;;;16.02;34.42;101239.44;5032402;28;20033;-69
2021/04/29 03:41:22;;;;;;;13.30;4.90;;;;;;;16.07;34.38;101240.03;5033703;28;20056;-69
2021/04/29 03:43:47;;;;;;;6.80;3.80;;;;;;;16.06;34.55;101248.66;5033540;28;20033;-69
2021/04/29 03:46:13;;;;;;;8.82;4.18;;;;;;;16.06;34.46;101237.63;5033546;28;20080;-69
2021/04/29 03:48:39;;;;;;;6.28;3.90;;;;;;;16.01;34.48;101241.38;5033292;28;20399;-69
2021/04/29 03:51:05;;;;;;;6.05;3.92;;;;;;;16.08;34.39;101243.59;5033470;28;20036;-69
2021/04/29 03:53:30;;;;;;;10.18;4.78;;;;;;;15.97;34.48;101234.94;5033697;28;20041;-69
2021/04/29 03:55:57;;;;;;;5.25;4.05;;;;;;;15.95;34.44;101239.19;5033218;28;20112;-69
2021/04/29 03:58:23;;;;;;;11.93;4.55;;;;;;;15.92;34.54;101242.59;5033353;28;20060;-69
2021/04/29 04:00:48;;;;;;;13.20;5.55;;;;;;;15.84;34.77;101238.78;5033592;28;20088;-69
2021/04/29 04:03:14;;;;;;;7.10;4.95;;;;;;;15.75;34.82;101244.34;5033526;28;20072;-69
2021/04/29 04:05:40;;;;;;;8.30;4.50;;;;;;;15.65;34.98;101238.44;5033184;28;20528;-69
2021/04/29 04:08:05;;;;;;;12.23;4.60;;;;;;;15.61;34.83;101237.47;5033043;28;20383;-70
2021/04/29 04:10:31;;;;;;;12.23;4.10;;;;;;;15.62;34.96;101239.09;5033118;28;20052;-69
2021/04/29 04:12:56;;;;;;;7.20;4.30;;;;;;;15.49;35.00;101236.25;5033073;28;20107;-69
2021/04/29 04:15:22;;;;;;;10.18;4.78;;;;;;;15.55;34.82;101237.66;5033184;28;20033;-69
2021/04/29 04:17:47;;;;;;;10.63;4.53;;;;;;;15.49;35.17;101236.25;5032950;28;20124;-73
2021/04/29 04:20:13;;;;;;;12.70;4.63;;;;;;;15.51;35.12;101242.22;5031277;28;20026;-70
2021/04/29 04:22:39;;;;;;;9.30;4.68;;;;;;;15.50;35.12;101243.38;5031719;28;20029;-69
2021/04/29 04:25:05;;;;;;;9.52;4.10;;;;;;;15.50;35.04;101237.06;5033057;28;20032;-69
2021/04/29 04:27:31;;;;;;;8.02;3.60;;;;;;;15.49;35.00;101241.78;5033065;28;20018;-69
2021/04/29 04:29:56;;;;;;;7.93;3.72;;;;;;;15.48;35.30;101242.88;5033081;28;20048;-69
2021/04/29 04:32:22;;;;;;;13.82;4.53;;;;;;;15.42;35.15;101244.25;5033064;28;20029;-69
2021/04/29 04:34:47;;;;;;;9.80;3.78;;;;;;;15.42;35.49;101247.00;5032744;28;20067;-68
2021/04/29 04:37:13;;;;;;;8.48;3.85;;;;;;;15.34;35.40;101244.25;5032774;28;20029;-74
2021/04/29 04:39:39;;;;;;;11.38;4.63;;;;;;;15.33;35.31;101246.22;5032714;28;20075;-69
2021/04/29 04:42:05;;;;;;;20.67;5.20;;;;;;;15.23;35.44;101250.16;5032669;28;20033;-69
2021/04/29 04:44:30;;;;;;;9.20;3.85;;;;;;;15.16;35.66;101244.38;5032400;28;20029;-69
2021/04/29 04:46:56;;;;;;;11.32;4.55;;;;;;;15.13;35.79;101249.75;5032688;28;20120;-69
2021/04/29 04:49:22;;;;;;;9.57;3.55;;;;;;;15.18;35.65;101250.34;5032396;28;20077;-69
2021/04/29 04:51:47;;;;;;;12.55;3.65;;;;;;;15.12;35.69;101248.13;5032574;28;20030;-70
2021/04/29 04:54:15;;;;;;;15.40;4.45;;;;;;;15.09;35.81;101243.28;5032553;28;20033;-69
2021/04/29 04:56:40;;;;;;;7.07;3.25;;;;;;;15.09;35.75;101246.03;5032491;28;20088;-69
2021/04/29 04:59:06;;;;;;;15.30;5.13;;;;;;;14.89;36.27;101242.88;5032726;28;20029;-70
2021/04/29 05:01:31;;;;;;;8.35;3.25;;;;;;;15.04;35.77;101247.03;5032426;28;20598;-69
2021/04/29 05:03:57;;;;;;;8.48;3.28;;;;;;;15.04;35.82;101244.28;5032679;28;20041;-69
2021/04/29 05:06:23;;;;;;;14.93;3.97;;;;;;;15.02;35.83;101246.53;5035676;28;20468;-69
2021/04/29 05:08:49;;;;;;;13.70;4.10;;;;;;;15.15;35.67;101244.69;5036471;28;20086;-69
2021/04/29 05:11:14;;;;;;;13.80;4.50;;;;;;;15.03;35.79;101248.16;5036712;28;20067;-69
2021/04/29 05:13:40;;;;;;;8.63;3.97;;;;;;;15.01;36.14;101249.63;5036656;28;20416;-69
2021/04/29 05:16:05;;;;;;;19.17;4.28;;;;;;;15.09;35.82;101254.28;5036227;28;20025;-69
2021/04/29 05:18:31;;;;;;;13.60;4.80;;;;;;;15.16;35.86;101260.88;5036315;28;20017;-69
2021/04/29 05:20:57;;;;;;;16.42;4.53;;;;;;;15.02;36.50;101259.50;5036160;28;20033;-69
2021/04/29 05:23:22;;;;;;;11.82;4.70;;;;;;;15.25;35.90;101258.88;5036215;28;20025;-70
2021/04/29 05:25:48;;;;;;;8.52;3.90;;;;;;;15.33;35.52;101259.19;5036260;28;20025;-69
2021/04/29 05:28:15;;;;;;;8.65;3.70;;;;;;;15.33;35.85;101259.19;5036362;28;20398;-69
2021/04/29 05:30:41;;;;;;;8.80;4.03;;;;;;;15.48;35.76;101264.09;5036092;28;20025;-69
2021/04/29 05:33:06;;;;;;;11.40;3.70;;;;;;;15.41;35.86;101266.56;5036351;28;20079;-75
2021/04/29 05:35:32;;;;;;;10.63;3.33;;;;;;;15.61;35.55;101265.84;5033983;28;20488;-69
2021/04/29 05:37:58;;;;;;;15.55;4.35;;;;;;;15.48;35.98;101267.66;5035047;28;20025;-69
2021/04/29 05:40:24;;;;;;;21.17;5.65;;;;;;;15.59;35.83;101279.13;5036297;28;20025;-69
2021/04/29 05:42:49;;;;;;;11.55;4.00;;;;;;;15.54;35.79;101280.13;5034992;28;20353;-71
2021/04/29 05:45:15;;;;;;;10.18;4.60;;;;;;;15.64;35.88;101284.47;5035814;28;20124;-69
2021/04/29 05:47:41;;;;;;;51.67;7.68;;;;;;;15.54;36.14;101279.31;5035633;28;20049;-69
2021/04/29 05:50:08;;;;;;;22.63;4.22;;;;;;;15.55;36.06;101281.72;5035852;28;20063;-69
2021/04/29 05:52:33;;;;;;;18.38;4.75;;;;;;;15.65;35.98;101275.06;5035737;28;20531;-69
2021/04/29 05:54:59;;;;;;;30.77;6.32;;;;;;;15.59;36.04;101272.81;5035806;28;20140;-69
2021/04/29 05:57:25;;;;;;;16.02;4.70;;;;;;;15.74;35.85;101283.28;5035553;28;20025;-70
2021/04/29 05:59:51;;;;;;;12.95;3.92;;;;;;;15.66;36.08;101281.38;5035783;28;20079;-69
2021/04/29 06:02:17;;;;;;;20.38;4.93;;;;;;;15.77;35.81;101280.63;5035372;28;20028;-69
2021/04/29 06:04:42;;;;;;;6.38;3.58;;;;;;;15.80;35.89;101284.69;5035696;28;20029;-72
2021/04/29 06:07:14;;;;;;;16.65;4.45;;;;;;;15.69;35.93;101287.03;5035334;28;20423;-69
2021/04/29 06:09:40;;;;;;;17.40;3.90;;;;;;;15.82;36.04;101282.41;5035318;28;20025;-69
2021/04/29 06:12:07;;;;;;;10.20;3.53;;;;;;;15.99;35.70;101285.03;5035451;28;20423;-72
2021/04/29 06:14:32;;;;;;;9.63;3.70;;;;;;;15.87;35.94;101287.72;5035227;28;20476;-69
2021/04/29 06:16:58;;;;;;;14.77;4.35;;;;;;;15.86;35.99;101291.59;5027612;28;20041;-70
2021/04/29 06:19:23;;;;;;;11.98;4.13;;;;;;;16.00;35.81;101291.34;5034334;28;20025;-71
2021/04/29 06:21:49;;;;;;;12.23;4.40;;;;;;;16.11;35.74;101286.25;5035114;28;20033;-76
2021/04/29 06:24:15;;;;;;;9.88;3.83;;;;;;;16.14;35.60;101288.31;5035162;28;20104;-69
2021/04/29 06:26:41;;;;;;;8.55;3.60;;;;;;;16.26;35.67;101291.13;5035104;28;20101;-69
2021/04/29 06:29:07;;;;;;;21.02;5.15;;;;;;;16.21;36.02;101289.38;5034191;28;20488;-71
2021/04/29 06:31:37;;;;;;;17.63;4.15;;;;;;;16.22;36.06;101282.72;5035020;28;20026;-70
2021/04/29 06:34:04;;;;;;;11.45;3.38;;;;;;;16.31;36.21;101285.41;5034835;28;20104;-69
2021/04/29 06:36:30;;;;;;;11.25;4.78;;;;;;;16.31;36.03;101299.19;5034014;28;20033;-72
2021/04/29 06:38:56;;;;;;;16.70;4.57;;;;;;;16.36;36.13;101291.50;5034076;28;20026;-70
2021/04/29 06:41:22;;;;;;;12.00;3.95;;;;;;;16.42;36.17;101294.88;5034788;28;20028;-70
2021/04/29 06:43:47;;;;;;;12.52;4.40;;;;;;;16.50;36.11;101287.66;5034504;28;20026;-70
2021/04/29 06:46:13;;;;;;;22.80;5.75;;;;;;;16.52;36.22;101294.44;5034542;28;20026;-70
2021/04/29 06:48:40;;;;;;;14.05;4.72;;;;;;;16.72;36.12;101298.34;5033315;28;20096;-73
2021/04/29 06:51:06;;;;;;;6.65;3.90;;;;;;;17.11;35.58;101296.91;5034498;28;20104;-70
2021/04/29 06:53:31;;;;;;;23.92;6.10;;;;;;;17.03;35.71;101297.84;5033132;28;20133;-70
2021/04/29 06:55:57;;;;;;;18.55;5.45;;;;;;;17.05;35.83;101297.47;5032970;28;20037;-70
2021/04/29 06:58:23;;;;;;;10.55;3.85;;;;;;;17.07;36.10;101293.22;5032706;28;20090;-71
2021/04/29 07:00:49;;;;;;;10.45;3.55;;;;;;;17.11;35.93;101298.88;5032874;28;20029;-70
2021/04/29 07:03:15;;;;;;;19.38;5.53;;;;;;;17.15;35.87;101294.25;5032580;28;20104;-71
2021/04/29 07:05:40;;;;;;;15.27;3.90;;;;;;;17.07;36.00;101301.50;5032457;28;20636;-70
2021/04/29 07:08:07;;;;;;;25.27;6.00;;;;;;;17.04;36.45;101299.44;5033562;28;20030;-70
2021/04/29 07:10:32;;;;;;;22.30;6.38;;;;;;;17.18;36.47;101302.69;5033338;28;20029;-71
2021/04/29 07:12:58;;;;;;;26.13;7.22;;;;;;;17.25;36.33;101301.31;5034181;28;20455;-75
2021/04/29 07:15:23;;;;;;;14.27;4.70;;;;;;;17.45;36.29;101303.13;5034101;28;20037;-70
2021/04/29 07:17:49;;;;;;;20.38;5.80;;;;;;;17.53;36.25;101296.69;5032276;28;20029;-70
2021/04/29 07:20:14;;;;;;;16.85;5.70;;;;;;;17.62;36.41;101294.63;5032492;28;20087;-69
2021/04/29 07:22:40;;;;;;;13.88;5.38;;;;;;;17.76;36.41;101302.59;5032868;28;20025;-70
2021/04/29 07:25:07;;;;;;;17.80;5.50;;;;;;;17.92;36.14;101297.13;5034126;28;20072;-84
2021/04/29 07:27:34;;;;;;;16.35;6.72;;;;;;;18.25;35.87;101306.00;5032155;28;20033;-73
2021/04/29 07:29:59;;;;;;;22.08;4.95;;;;;;;18.40;35.57;101298.13;5034093;28;20096;-73
2021/04/29 07:32:25;;;;;;;21.60;5.25;;;;;;;18.58;35.46;101294.69;5033921;28;20033;-72
2021/04/29 07:34:51;;;;;;;30.48;9.30;;;;;;;18.65;35.41;101307.91;5033602;28;20068;-74
2021/04/29 07:37:16;;;;;;;20.52;5.88;;;;;;;18.58;35.71;101291.91;5047344;28;20037;-76
2021/04/29 07:39:42;;;;;;;9.35;3.85;;;;;;;18.75;35.46;101304.69;5016978;28;20026;-73
2021/04/29 07:42:07;;;;;;;22.05;6.13;;;;;;;18.95;35.09;101296.47;5015378;28;20048;-73
2021/04/29 07:44:33;;;;;;;22.35;5.53;;;;;;;19.09;34.93;101303.16;5016717;28;20032;-74
2021/04/29 07:46:59;;;;;;;13.52;3.40;;;;;;;19.15;34.57;101306.47;5016151;28;20048;-74
2021/04/29 07:49:25;;;;;;;14.90;4.22;;;;;;;19.26;34.22;101307.53;5016322;28;20037;-74
2021/04/29 07:51:51;;;;;;;18.63;6.18;;;;;;;19.37;33.98;101305.84;5016618;28;20484;-74
2021/04/29 07:54:17;;;;;;;50.53;10.70;;;;;;;19.51;34.07;101304.59;5015772;28;20029;-73
2021/04/29 07:56:43;;;;;;;43.47;10.25;;;;;;;19.46;33.89;101304.84;5015111;28;20029;-73
2021/04/29 07:59:09;;;;;;;26.80;5.32;;;;;;;19.49;33.72;101309.66;5031886;28;20029;-73
2021/04/29 08:01:34;;;;;;;26.83;9.10;;;;;;;19.46;33.80;101311.19;5033295;28;20029;-74
2021/04/29 08:04:01;;;;;;;14.52;4.57;;;;;;;19.49;33.91;101316.00;5032924;28;20025;-73
2021/04/29 08:06:31;;;;;;;15.70;4.47;;;;;;;19.45;33.80;101314.34;5032649;28;20029;-73
2021/04/29 08:08:57;;;;;;;15.32;5.50;;;;;;;19.60;33.74;101316.31;5032705;28;20029;-73
2021/04/29 08:11:23;;;;;;;16.98;5.32;;;;;;;19.79;33.37;101319.13;5032663;28;20033;-74
2021/04/29 08:13:49;;;;;;;14.18;4.55;;;;;;;19.90;33.37;101322.16;5031448;28;21006;-81
2021/04/29 08:16:15;;;;;;;22.75;8.60;;;;;;;19.97;33.15;101324.28;5028600;28;20479;-76
2021/04/29 08:18:41;;;;;;;10.10;3.53;;;;;;;20.00;32.85;101326.31;5024584;28;20032;-77
2021/04/29 08:21:08;;;;;;;11.98;5.28;;;;;;;19.98;33.14;101331.44;5020971;28;20029;-73
2021/04/29 08:23:34;;;;;;;15.70;4.40;;;;;;;20.24;32.91;101315.75;5023063;28;20041;-73
2021/04/29 08:26:00;;;;;;;8.70;3.95;;;;;;;20.23;33.01;101330.78;5018549;28;20088;-75
2021/04/29 08:28:25;;;;;;;9.07;3.30;;;;;;;20.35;32.92;101329.06;5012281;28;20108;-74
2021/04/29 08:30:51;;;;;;;11.48;3.95;;;;;;;20.35;33.07;101329.84;5020427;28;20389;-73
2021/04/29 08:33:17;;;;;;;4.60;3.63;;;;;;;20.09;33.49;101335.22;5012350;28;20361;-73
2021/04/29 08:35:42;;;;;;;10.63;4.22;;;;;;;20.12;33.48;101328.97;5015974;28;20029;-72
2021/04/29 08:38:08;;;;;;;7.30;3.47;;;;;;;20.11;33.60;101336.50;5031825;28;20540;-73
2021/04/29 08:40:34;;;;;;;8.10;2.85;;;;;;;20.15;33.67;101331.81;5031183;28;20163;-73
2021/04/29 08:42:59;;;;;;;13.02;3.05;;;;;;;20.30;33.77;101332.91;5031972;28;20057;-72
2021/04/29 08:45:25;;;;;;;4.30;2.20;;;;;;;20.25;33.60;101327.66;5031677;28;20743;-73
2021/04/29 08:47:53;;;;;;;4.53;1.80;;;;;;;20.16;33.85;101336.19;5031671;28;20083;-73
2021/04/29 08:50:20;;;;;;;9.57;1.80;;;;;;;20.24;33.83;101324.06;5031402;28;20048;-73
2021/04/29 08:52:46;;;;;;;6.95;2.00;;;;;;;20.50;33.40;101331.78;5031465;28;20480;-74
2021/04/29 08:55:20;;;;;;;6.35;1.83;;;;;;;20.62;32.98;101336.38;5030181;28;20506;-74
2021/04/29 08:57:47;;;;;;;8.13;1.77;;;;;;;20.83;32.61;101338.75;5031628;28;20029;-73
2021/04/29 09:00:14;;;;;;;6.53;1.92;;;;;;;20.88;32.39;101338.47;5031566;28;20029;-74
2021/04/29 09:02:40;;;;;;;4.90;1.73;;;;;;;20.78;32.27;101337.09;5031706;28;20036;-74
2021/04/29 09:05:20;;;;;;;10.20;2.65;;;;;;;20.94;31.94;101339.78;5030423;28;20369;-73
2021/04/29 09:08:04;;;;;;;6.82;2.20;;;;;;;21.04;31.71;101338.34;5031731;28;20163;-80
2021/04/29 09:10:33;;;;;;;7.97;2.00;;;;;;;21.09;31.63;101337.25;5030396;28;20444;-74
2021/04/29 09:13:01;;;;;;;6.07;1.58;;;;;;;21.50;31.08;101333.59;5031588;28;20033;-74
2021/04/29 09:15:33;;;;;;;5.93;1.90;;;;;;;21.64;30.76;101341.38;5030186;28;20029;-74
2021/04/29 09:18:20;;;;;;;6.15;2.45;;;;;;;21.44;30.67;101340.63;5031608;28;20471;-74
2021/04/29 09:20:57;;;;;;;7.90;2.00;;;;;;;21.20;30.95;101333.47;5031906;28;20564;-80
2021/04/29 09:23:31;;;;;;;15.40;2.85;;;;;;;21.20;31.22;101339.03;5024865;28;20033;-73
2021/04/29 09:26:00;;;;;;;1.73;1.10;;;;;;;21.40;31.01;101339.00;5020855;28;20034;-73
2021/04/29 09:28:48;;;;;;;7.75;1.95;;;;;;;21.50;30.33;101333.59;5044187;28;20025;-77
2021/04/29 09:31:13;;;;;;;5.47;1.55;;;;;;;21.82;29.85;101341.63;5031573;28;20104;-73
2021/04/29 09:33:50;;;;;;;5.68;1.83;;;;;;;21.67;30.10;101350.94;5031462;28;20104;-74
2021/04/29 09:36:25;;;;;;;3.30;1.20;;;;;;;21.75;29.71;101344.28;5031536;28;20040;-73
2021/04/29 09:38:56;;;;;;;15.23;2.60;;;;;;;21.80;29.38;101343.97;5030058;28;20021;-76
2021/04/29 09:41:25;;;;;;;4.85;1.40;;;;;;;21.84;29.43;101347.63;5030109;28;20494;-73
2021/04/29 09:43:52;;;;;;;8.23;2.10;;;;;;;21.72;29.49;101359.75;5031313;28;20476;-74
2021/04/29 09:46:17;;;;;;;3.10;1.38;;;;;;;21.89;29.24;101355.63;5031281;28;20021;-73
2021/04/29 09:48:43;;;;;;;6.38;1.83;;;;;;;21.83;29.19;101365.47;5031038;28;20056;-73
2021/04/29 09:51:08;;;;;;;7.00;1.85;;;;;;;21.67;29.25;101365.63;5031019;28;20104;-73
2021/04/29 09:53:49;;;;;;;7.43;1.77;;;;;;;21.81;28.95;101362.28;5033675;28;20021;-74
2021/04/29 09:56:17;;;;;;;8.35;1.65;;;;;;;21.83;29.09;101366.28;5033684;28;20116;-73
2021/04/29 09:58:57;;;;;;;6.82;1.85;;;;;;;22.13;28.89;101366.34;5034760;28;20167;-73
2021/04/29 10:01:25;;;;;;;;;;;;;;;21.93;28.61;101358.47;5034212;28;20022;-78
2021/04/29 10:03:50;;;;;;;2.38;1.17;;;;;;;22.20;28.48;101365.63;5034867;28;19913;-81
2021/04/29 10:06:17;;;;;;;7.90;1.67;;;;;;;22.36;28.51;101369.03;5033491;28;20052;-74
2021/04/29 10:08:43;;;;;;;4.40;1.45;;;;;;;22.56;28.11;101360.53;5033327;28;20025;-80
2021/04/29 10:11:10;;;;;;;6.35;1.30;;;;;;;22.50;28.02;101362.03;5033415;28;20083;-80
2021/04/29 10:13:43;;;;;;;9.55;1.50;;;;;;;22.36;27.88;101363.47;5028970;28;20083;-74
2021/04/29 10:16:08;;;;;;;3.10;1.38;;;;;;;22.67;27.76;101351.13;5018102;28;20415;-75
2021/04/29 10:18:34;;;;;;;3.92;1.10;;;;;;;22.80;27.55;101353.63;5027884;28;20097;-73
2021/04/29 10:21:01;;;;;;;3.05;1.05;;;;;;;22.58;27.70;101358.16;5035284;28;20032;-74
2021/04/29 10:23:29;;;;;;;5.85;1.23;;;;;;;22.77;27.57;101354.41;5034937;28;20026;-74
2021/04/29 10:25:59;;;;;;;3.78;1.02;;;;;;;22.68;27.31;101358.31;5035088;28;20423;-73
2021/04/29 10:28:33;;;;;;;2.90;1.30;;;;;;;22.86;26.78;101354.94;5035122;28;20049;-73
2021/04/29 10:30:59;;;;;;;2.90;1.52;;;;;;;23.07;26.73;101357.13;5035064;28;20026;-82
2021/04/29 10:33:35;;;;;;;2.53;1.20;;;;;;;22.80;26.44;101356.41;5035068;28;20018;-77
2021/04/29 10:36:01;;;;;;;2.70;1.27;;;;;;;22.79;27.12;101357.59;5034857;28;20029;-75
2021/04/29 10:38:33;;;;;;;4.57;1.63;;;;;;;23.02;26.73;101358.28;5034864;28;20031;-74
2021/04/29 10:41:15;;;;;;;2.95;1.13;;;;;;;23.04;26.60;101361.47;5034961;28;20025;-75
2021/04/29 10:43:41;;;;;;;2.78;1.00;;;;;;;23.24;26.53;101365.66;5034668;28;20025;-74
2021/04/29 10:46:08;;;;;;;4.88;1.20;;;;;;;22.89;26.51;101368.88;5033285;28;20036;-75
2021/04/29 10:48:49;;;;;;;2.22;1.17;;;;;;;23.01;26.71;101369.81;5034074;28;20107;-74
2021/04/29 10:51:15;;;;;;;3.63;0.90;;;;;;;22.68;26.63;101369.44;5034400;28;20432;-74
2021/04/29 10:53:41;;;;;;;3.33;1.40;;;;;;;23.00;25.99;101380.16;5032708;28;20056;-74
2021/04/29 10:56:09;;;;;;;11.07;1.90;;;;;;;23.00;26.06;101368.22;5034342;28;20041;-74
2021/04/29 10:58:35;;;;;;;10.00;2.13;;;;;;;22.81;26.66;101374.72;5034266;28;20087;-74
2021/04/29 11:01:05;;;;;;;2.42;1.10;;;;;;;22.91;26.23;101380.47;5034387;28;20053;-74
2021/04/29 11:03:32;;;;;;;6.88;1.27;;;;;;;22.64;26.85;101384.50;5033249;28;20049;-74
2021/04/29 11:06:12;;;;;;;4.07;1.25;;;;;;;22.80;26.50;101375.91;5034388;28;20025;-75
2021/04/29 11:08:43;;;;;;;5.03;1.50;;;;;;;22.78;26.56;101376.31;5034411;28;20364;-74
2021/04/29 11:11:33;;;;;;;5.63;1.52;;;;;;;22.79;26.47;101375.13;5034326;28;20040;-74
2021/04/29 11:14:17;;;;;;;3.75;1.13;;;;;;;23.10;26.42;101379.47;5034216;28;20030;-74
2021/04/29 11:16:49;;;;;;;1.88;1.00;;;;;;;23.06;26.32;101377.84;5034148;28;20036;-74
2021/04/29 11:19:42;;;;;;;5.95;1.42;;;;;;;23.38;25.94;101375.34;5034256;28;20026;-74
2021/04/29 11:22:14;;;;;;;5.95;1.48;;;;;;;23.53;25.74;101380.66;5033172;28;20042;-73
2021/04/29 11:24:47;;;;;;;8.50;1.67;;;;;;;23.68;25.54;101378.00;5033701;28;20029;-73